Frank Wiley Field
KMLS : now visible

Airfield :











YOU CAN JOIN US ON...

 
LOGIN :

Register | Disclaimer

   EN    FR    IT 

 









Legend :    VFR   Marginal VFR   IFR   Intensive IFR   Very Intensive IFR
Visi :
Ceiling :
>= 8 km
>= 3000ft
5 to 8 km
1000 to 3000 ft
1500m to 5 km
500 to 1000 ft
800 to 1500m
200 to 500 ft
< 800m
< 200 ft
Symbols :   Thunderstorms  Fog  Heavy snow  Heavy precipitations  Wind > 20 kt






- Airport Elevation : 2630 ft
- IATA code : MLS


KMLS - Frank Wiley Field

CURRENT METAR :
  • 151653Z AUTO 16006KT 10SM CLR 03/M01 A2999 RMK AO2 SLP171 T00281006

EXPIRED METARs :
  • 151553Z AUTO 14008KT 10SM CLR 01/M02 A2999 RMK AO2 SLP176 T00061017
  • 151453Z AUTO 15008KT 10SM CLR M02/M03 A2999 RMK AO2 SLP175 T10171028 55003

TAF KMLS
Valid from the 15 at 18:00 until the 16 at 18:00 UTC


151723Z 1518/1618 16010KT P6SM SCT200
FM160300 23006KT P6SM BKN120
FM160900 26007KT P6SM SCT050 OVC080 WS014/27035KT
FM161200 28010KT P6SM VCSH SCT025 BKN050 OVC080 WS014/30035KT



MET'MAP, your aeronautical weather chart ! - Copyright ORBIFLY December 2007 - Disclaimer

ORBIFLY MET'MAP TEAM :

Programming & Development : Alexandra Zaïnal
Concept & Development : Baudouin d'Aumeries
Co-Development & Prog : Marc-Olivier Méhu
Technical & hardware support : Manuel Goepfert

Contact : metmap@orbifly.com




SOURCES & CREDITS :

   NOAA       Earth
Advisory